Terminal Aerodrome Forecast
Issued by NWS

Home | Current Version | Previous Version | Text Only | Print | Product List | Glossary On
Versions: 1 2 3 4 5 6 7 8 9 10 11 12 13 14 15 16 17
000
FTUS45 KVEF 281700
TAFEED
TAF
KEED 281738Z 2818/2918 VRB06KT P6SM SCT100 BKN200
     FM282200 19011KT P6SM SCT100 BKN200
     FM290300 23007KT P6SM FEW100 BKN200=

USA.gov is the U.S. government's official web portal to all federal, state and local government web resources and services.